• Join FlightAware (Why Join?)
  • Login
  • US Flag 
05:26AM EDT


 

Airport Tracker/Info


-or-


 

Live Flight TrackerFlight Track Log ✈ AWE3997 ✈ 16-Feb-2014 ✈ KMKE - KCLT

Flight Track Log - Related Links

Times and Time Zones

All times are in EST time to prevent confusion due to time zone crossing. See the AWE3997 flight status page for this flight to view local times or setup timezone preferences in your user account.

Time Position Orientation Groundspeed Altitude Reporting Facility
EST Latitude Longitude Course Direction KTS MPH feet Rate Location/Type
12:28PM 42.9667 -87.8833 190° South 163 188 1,700  Level KMKE
12:28PM 42.9833 -87.8833 360° North 168 193 3,000 2,460 Climbing KMKE
12:29PM 42.9758 -87.8228 100° East 212 244 5,300 2,040 Climbing Chicago Center
12:30PM 42.6848 -87.6273 184° South  Level Estimated
12:30PM 42.9064 -87.8072 171° South 249 287 6,900  Level Chicago Center
12:31PM 42.5973 -87.5379 185° South  Level Estimated
12:31PM 42.8225 -87.7956 174° South 296 341 9,400  Level Chicago Center
12:32PM 42.5296 -87.6546 232° Southwest  Level FlightAware Approximate
12:32PM 42.7272 -87.7811 174° South 338 389 10,700  Level Chicago Center
12:33PM 42.4429 -87.5640 190° South  Level Estimated
12:33PM 42.6208 -87.7633 173° South 382 440 12,700  Level Chicago Center
12:34PM 42.5128 -87.7633 180° South 388 447 14,800 1,860 Climbing Chicago Center
12:35PM 42.4039 -87.7650 181° South 390 449 16,600 1,380 Climbing Chicago Center
12:36PM 42.2733 -87.7694 181° South 415 478 17,700 1,020 Climbing Chicago Center
12:37PM 42.1519 -87.7722 181° South 433 498 18,700 1,380 Climbing Chicago Center
12:38PM 42.0289 -87.7739 181° South 441 507 20,600 1,320 Climbing Chicago Center
12:39PM 41.9086 -87.7772 181° South 435 501 21,500 1,020 Climbing Chicago Center
12:40PM 41.7825 -87.7794 181° South 448 516 22,700 1,200 Climbing Chicago Center
12:41PM 41.6586 -87.7817 181° South 445 512 24,100 1,380 Climbing Chicago Center
12:42PM 41.5097 -87.7853 181° South 442 509 25,600 1,200 Climbing Chicago Center
12:43PM 41.3853 -87.7778 177° South 442 509 26,600 1,020 Climbing Chicago Center
12:44PM 41.2603 -87.7522 171° South 448 516 27,800 1,080 Climbing Chicago Center
12:45PM 41.1350 -87.7261 171° South 450 518 28,900 840 Climbing Chicago Center
12:46PM 41.0122 -87.7011 171° South 447 514 29,600 600 Climbing Chicago Center
12:48PM 40.8878 -87.6739 171° South 450 518 30,200 660 Climbing Chicago Center
12:49PM 40.7619 -87.6475 171° South 454 522 31,000 360 Climbing Chicago Center
12:50PM 40.6419 -87.5806 157° South 477 549 31,000  Level Chicago Center
12:51PM 40.5511 -87.4417 131° Southeast 497 572 31,000  Level Chicago Center
12:52PM 40.4403 -87.2808 132° Southeast 496 571 31,000  Level Chicago Center
12:53PM 40.3672 -87.1681 130° Southeast 495 570 31,000  Level Chicago Center
12:54PM 40.2594 -87.0114 132° Southeast 486 559 31,000  Level Chicago Center
12:55PM 40.1694 -86.8806 132° Southeast 484 557 31,000  Level Chicago Center
12:56PM 40.0811 -86.7503 132° Southeast 482 555 31,000  Level Chicago Center
12:57PM 39.9919 -86.6219 132° Southeast 479 551 31,000  Level Chicago Center
12:58PM 39.9025 -86.4928 132° Southeast 480 552 31,000  Level Chicago Center
12:59PM 39.8133 -86.3636 132° Southeast 481 554 31,000  Level Chicago Center
01:00PM 39.7200 -86.1989 126° Southeast 478 550 31,000  Level Chicago Center
01:01PM 39.6486 -86.0661 125° Southeast 494 568 31,000  Level Chicago Center
01:02PM 39.5686 -85.9217 126° Southeast 495 570 31,000  Level Chicago Center
01:03PM 39.4697 -85.7467 126° Southeast 500 575 31,000  Level Chicago Center
01:04PM 39.3911 -85.6039 125° Southeast 494 568 31,000  Level Chicago Center
01:05PM 39.2756 -85.4011 126° Southeast 496 571 31,000  Level Indianapolis Center
01:06PM 39.1944 -85.2572 126° Southeast 497 572 31,000  Level Indianapolis Center
01:07PM 39.1136 -85.1122 126° Southeast 498 573 31,000  Level Indianapolis Center
01:09PM 39.0308 -84.9689 127° Southeast 498 573 31,000  Level Indianapolis Center
01:10PM 38.9356 -84.8058 127° Southeast 499 574 31,000  Level Indianapolis Center
01:11PM 38.8522 -84.6531 125° Southeast 499 574 31,000  Level Indianapolis Center
01:12PM 38.7725 -84.5203 128° Southeast 500 575 31,000  Level Indianapolis Center
01:13PM 38.6919 -84.3825 127° Southeast 494 568 31,000  Level Indianapolis Center
01:14PM 38.5764 -84.2367 135° Southeast 488 562 31,000  Level Indianapolis Center
01:15PM 38.4714 -84.1300 141° Southeast 486 559 31,000  Level Indianapolis Center
01:16PM 38.3658 -84.0250 142° Southeast 483 556 31,000  Level Indianapolis Center
01:17PM 38.2617 -83.9197 142° Southeast 481 554 31,000  Level Indianapolis Center
01:18PM 38.1572 -83.8161 142° Southeast 479 551 31,000  Level Indianapolis Center
01:19PM 38.0536 -83.7114 141° Southeast 478 550 31,000  Level Indianapolis Center
01:20PM 37.9500 -83.6069 142° Southeast 477 549 31,000  Level Indianapolis Center
01:21PM 37.8308 -83.4847 141° Southeast 476 548 31,000  Level Indianapolis Center
01:22PM 37.7278 -83.3811 141° Southeast 474 545 31,000  Level Indianapolis Center
01:23PM 37.6231 -83.2781 142° Southeast 474 545 31,000 -300 Level Indianapolis Center
01:24PM 37.5194 -83.1761 142° Southeast 474 545 30,500 -840 Descending Indianapolis Center
01:25PM 37.4142 -83.0725 142° Southeast 474 545 29,400 -780 Descending Indianapolis Center
01:26PM 37.3089 -82.9692 142° Southeast 477 549 29,000 -240 Descending Indianapolis Center
01:27PM 37.2047 -82.8681 142° Southeast 475 547 29,000  Level Indianapolis Center
01:28PM 37.1014 -82.7678 142° Southeast 469 540 29,000  Level Indianapolis Center
01:29PM 36.9808 -82.6503 142° Southeast 466 536 29,000  Level Indianapolis Center
01:30PM 36.8767 -82.5494 142° Southeast 466 536 29,000 -300 Level Indianapolis Center
01:31PM 36.7722 -82.4492 142° Southeast 467 537 28,400 -840 Descending Indianapolis Center
01:32PM 36.6689 -82.3517 143° Southeast 468 539 27,400 -960 Descending Indianapolis Center
01:33PM 36.5756 -82.2833 150° Southeast 462 532 26,600 -1,020 Descending Atlanta Center
01:34PM 36.4606 -82.2706 175° South 416 479 25,500 -1,320 Descending Atlanta Center
01:35PM 36.3414 -82.2550 174° South 421 484 24,000 -780 Descending Atlanta Center
01:36PM 36.2328 -82.2419 174° South 411 473 24,000 -180 Level Atlanta Center
01:37PM 36.1322 -82.2133 167° South 390 449 23,700 -1,260 Descending Atlanta Center
01:38PM 36.0494 -82.1100 135° Southeast 379 436 21,500 -2,400 Descending Atlanta Center
01:39PM 35.9664 -82.0042 134° Southeast 404 465 19,000 -2,340 Descending Atlanta Center
01:40PM 35.8811 -81.9064 137° Southeast 415 478 16,900 -2,340 Descending Atlanta Center
01:41PM 35.7897 -81.7986 136° Southeast 422 486 14,400 -2,100 Descending Atlanta Center
01:42PM 35.7172 -81.7139 136° Southeast 398 458 12,800 -1,560 Descending Atlanta Center
01:42PM 35.6958 -81.6914 139° Southeast 344 396 12,400 -1,680 Descending Atlanta Center
01:43PM 35.6744 -81.6664 136° Southeast 335 386 11,800 -1,920 Descending Atlanta Center
01:43PM 35.6489 -81.6364 136° Southeast 355 409 11,100 -840 Descending Atlanta Center
01:44PM 35.6039 -81.5817 135° Southeast 330 380 11,000 -120 Descending Atlanta Center
01:44PM 35.5844 -81.5517 129° Southeast 341 392 11,000 -240 Level Atlanta Center
01:45PM 35.5436 -81.4917 130° Southeast 338 389 10,800 -540 Descending Atlanta Center
01:45PM 35.5264 -81.4639 127° Southeast 335 386 10,500 -1,620 Descending Atlanta Center
01:46PM 35.5061 -81.3931 109° East 329 379 9,200 -1,920 Descending Atlanta Center
01:46PM 35.5075 -81.3575 87° East 311 358 8,600 -1,920 Descending Atlanta Center
01:47PM 35.5142 -81.2833 84° East 322 371 7,300 -1,620 Descending Atlanta Center
01:47PM 35.5092 -81.2478 100° East 303 349 7,000 -840 Descending Atlanta Center
01:48PM 35.4953 -81.1844 105° East 294 338 6,500 -900 Descending Atlanta Center
01:48PM 35.4861 -81.1517 109° East 303 349 6,100 -1,620 Descending Atlanta Center
01:49PM 35.4719 -81.0858 105° East 292 336 4,900 -1,620 Descending Atlanta Center
01:49PM 35.4631 -81.0556 110° East 297 342 4,500 -900 Descending Atlanta Center
01:50PM 35.4306 -81.0056 129° Southeast 258 297 4,000 -540 Descending Atlanta Center
01:50PM 35.4175 -80.9883 133° Southeast 267 307 4,000 -240 Level Atlanta Center
01:51PM 35.3794 -80.9669 155° Southeast 200 230 3,800 -420 Descending Atlanta Center
01:51PM 35.3647 -80.9597 158° South 221 254 3,600 -1,020 Descending Atlanta Center
01:52PM 35.3272 -80.9636 185° South 170 196 2,800 -1,020 Descending Atlanta Center
01:52PM 35.3144 -80.9617 173° South 190 219 2,600 -720 Descending Atlanta Center
01:53PM 35.2833 -80.9628 182° South 135 155 2,000 -840 Descending Atlanta Center
01:54PM 35.2414 -80.9592 176° South 142 163 1,100 -900 Descending Atlanta Center